Timberlake, Virginia
Current Conditions -  °F | °C
As of 2:54 AM on Friday 24 Oct 2014 (Local Time) from KLYH Reporting Station
Clear Clear  
Wind Chill: 38°   Ceiling: Unl
Heat Index: 41°   Visibility: 10mi
Dew Point: 38°   Wind: 5mph
Humidity: 89%   Direction: 200°SSW
Pressure: 30.01"   Gusts: NA
Location:  37.32°N, 79.26°W
Report Text: KLYH 240654Z AUTO 20004KT 10SM CLR 05/03 A3001 RMK AO2 SLP161 T00500033
Loading
Personal Weather Stations






























Interactive Weather Map
Tropical Storm Tracking
New forecast layout! Learn more

10-Day Weather Forecast

Advertisements
Track Severe Weather on mobile